sensor_id;sensor_type;location;lat;lon;timestamp;P1;durP1;ratioP1;P2;durP2;ratioP2
19867;SDS011;10096;51.112;6.776;2023-04-01T00:01:33;1.90;;;1.20;;
19867;SDS011;10096;51.112;6.776;2023-04-01T00:04:01;1.33;;;1.10;;
19867;SDS011;10096;51.112;6.776;2023-04-01T00:06:28;3.63;;;1.58;;
19867;SDS011;10096;51.112;6.776;2023-04-01T00:08:55;2.97;;;1.40;;
19867;SDS011;10096;51.112;6.776;2023-04-01T00:11:22;2.05;;;1.30;;
19867;SDS011;10096;51.112;6.776;2023-04-01T00:13:51;1.48;;;1.10;;
19867;SDS011;10096;51.112;6.776;2023-04-01T00:16:20;2.13;;;1.92;;
19867;SDS011;10096;51.112;6.776;2023-04-01T00:18:46;2.58;;;1.48;;
19867;SDS011;10096;51.112;6.776;2023-04-01T00:21:16;1.35;;;1.10;;
19867;SDS011;10096;51.112;6.776;2023-04-01T00:23:45;2.97;;;1.30;;
19867;SDS011;10096;51.112;6.776;2023-04-01T00:26:21;3.83;;;1.40;;
19867;SDS011;10096;51.112;6.776;2023-04-01T00:28:49;2.08;;;1.30;;
19867;SDS011;10096;51.112;6.776;2023-04-01T00:31:17;2.17;;;1.48;;
19867;SDS011;10096;51.112;6.776;2023-04-01T00:33:44;2.60;;;1.38;;
19867;SDS011;10096;51.112;6.776;2023-04-01T00:36:12;1.33;;;1.10;;
19867;SDS011;10096;51.112;6.776;2023-04-01T00:38:41;2.47;;;1.25;;
19867;SDS011;10096;51.112;6.776;2023-04-01T00:41:10;2.03;;;1.30;;
19867;SDS011;10096;51.112;6.776;2023-04-01T00:43:39;2.50;;;1.90;;
19867;SDS011;10096;51.112;6.776;2023-04-01T00:46:06;1.13;;;1.00;;
19867;SDS011;10096;51.112;6.776;2023-04-01T00:48:34;2.58;;;1.13;;
19867;SDS011;10096;51.112;6.776;2023-04-01T00:51:04;2.58;;;1.20;;
19867;SDS011;10096;51.112;6.776;2023-04-01T00:53:36;1.52;;;1.10;;
19867;SDS011;10096;51.112;6.776;2023-04-01T00:56:09;2.15;;;1.20;;
19867;SDS011;10096;51.112;6.776;2023-04-01T00:58:40;2.92;;;1.42;;
19867;SDS011;10096;51.112;6.776;2023-04-01T01:01:10;2.80;;;1.48;;
19867;SDS011;10096;51.112;6.776;2023-04-01T01:03:37;2.50;;;1.20;;
19867;SDS011;10096;51.112;6.776;2023-04-01T01:06:08;1.85;;;1.50;;
19867;SDS011;10096;51.112;6.776;2023-04-01T01:08:58;3.67;;;1.60;;
19867;SDS011;10096;51.112;6.776;2023-04-01T01:11:47;3.30;;;1.42;;
19867;SDS011;10096;51.112;6.776;2023-04-01T01:14:21;3.55;;;1.40;;
19867;SDS011;10096;51.112;6.776;2023-04-01T01:17:02;2.42;;;1.30;;
19867;SDS011;10096;51.112;6.776;2023-04-01T01:26:24;1.77;;;1.20;;
19867;SDS011;10096;51.112;6.776;2023-04-01T01:36:06;1.65;;;1.27;;
19867;SDS011;10096;51.112;6.776;2023-04-01T01:38:38;2.63;;;1.52;;
19867;SDS011;10096;51.112;6.776;2023-04-01T01:41:08;1.65;;;1.20;;
19867;SDS011;10096;51.112;6.776;2023-04-01T01:43:42;2.10;;;1.23;;
19867;SDS011;10096;51.112;6.776;2023-04-01T01:46:15;2.33;;;1.50;;
19867;SDS011;10096;51.112;6.776;2023-04-01T01:49:00;2.53;;;1.20;;
19867;SDS011;10096;51.112;6.776;2023-04-01T01:51:33;2.05;;;1.27;;
19867;SDS011;10096;51.112;6.776;2023-04-01T01:54:01;1.30;;;1.20;;
19867;SDS011;10096;51.112;6.776;2023-04-01T01:56:28;2.67;;;1.35;;
19867;SDS011;10096;51.112;6.776;2023-04-01T01:58:58;1.73;;;1.35;;
19867;SDS011;10096;51.112;6.776;2023-04-01T02:01:28;1.45;;;0.95;;
19867;SDS011;10096;51.112;6.776;2023-04-01T02:03:57;3.35;;;1.08;;
19867;SDS011;10096;51.112;6.776;2023-04-01T02:06:25;2.15;;;0.93;;
19867;SDS011;10096;51.112;6.776;2023-04-01T02:08:57;0.93;;;0.90;;
19867;SDS011;10096;51.112;6.776;2023-04-01T02:11:28;2.03;;;1.10;;
19867;SDS011;10096;51.112;6.776;2023-04-01T02:14:01;1.25;;;0.90;;
19867;SDS011;10096;51.112;6.776;2023-04-01T02:16:33;1.60;;;1.23;;
19867;SDS011;10096;51.112;6.776;2023-04-01T02:19:04;1.23;;;1.10;;
19867;SDS011;10096;51.112;6.776;2023-04-01T02:21:33;1.73;;;1.40;;
19867;SDS011;10096;51.112;6.776;2023-04-01T02:24:04;2.55;;;0.95;;
19867;SDS011;10096;51.112;6.776;2023-04-01T02:26:34;1.00;;;0.98;;
19867;SDS011;10096;51.112;6.776;2023-04-01T02:29:01;1.15;;;1.05;;
19867;SDS011;10096;51.112;6.776;2023-04-01T02:31:36;1.92;;;1.48;;
19867;SDS011;10096;51.112;6.776;2023-04-01T02:34:16;2.15;;;1.17;;
19867;SDS011;10096;51.112;6.776;2023-04-01T02:36:43;2.53;;;1.15;;
19867;SDS011;10096;51.112;6.776;2023-04-01T02:39:12;1.17;;;0.95;;
19867;SDS011;10096;51.112;6.776;2023-04-01T02:41:40;3.35;;;1.20;;
19867;SDS011;10096;51.112;6.776;2023-04-01T02:44:07;2.75;;;1.17;;
19867;SDS011;10096;51.112;6.776;2023-04-01T02:46:35;1.50;;;1.05;;
19867;SDS011;10096;51.112;6.776;2023-04-01T02:49:02;0.93;;;0.88;;
19867;SDS011;10096;51.112;6.776;2023-04-01T02:51:29;1.90;;;0.90;;
19867;SDS011;10096;51.112;6.776;2023-04-01T02:53:56;0.88;;;0.80;;
19867;SDS011;10096;51.112;6.776;2023-04-01T02:56:27;1.42;;;0.85;;
19867;SDS011;10096;51.112;6.776;2023-04-01T02:58:55;1.00;;;0.98;;
19867;SDS011;10096;51.112;6.776;2023-04-01T03:01:22;1.40;;;1.13;;
19867;SDS011;10096;51.112;6.776;2023-04-01T03:03:50;0.77;;;0.77;;
19867;SDS011;10096;51.112;6.776;2023-04-01T03:06:20;0.88;;;0.88;;
19867;SDS011;10096;51.112;6.776;2023-04-01T03:09:02;2.92;;;1.25;;
19867;SDS011;10096;51.112;6.776;2023-04-01T03:11:37;1.00;;;0.87;;
19867;SDS011;10096;51.112;6.776;2023-04-01T03:14:05;1.23;;;1.03;;
19867;SDS011;10096;51.112;6.776;2023-04-01T03:16:33;1.10;;;0.85;;
19867;SDS011;10096;51.112;6.776;2023-04-01T03:19:02;1.58;;;0.95;;
19867;SDS011;10096;51.112;6.776;2023-04-01T03:21:29;1.50;;;1.23;;
19867;SDS011;10096;51.112;6.776;2023-04-01T03:23:59;1.10;;;1.10;;
19867;SDS011;10096;51.112;6.776;2023-04-01T03:26:36;2.17;;;1.38;;
19867;SDS011;10096;51.112;6.776;2023-04-01T03:29:03;2.20;;;1.10;;
19867;SDS011;10096;51.112;6.776;2023-04-01T03:31:30;1.52;;;1.02;;
19867;SDS011;10096;51.112;6.776;2023-04-01T03:33:59;0.90;;;0.80;;
19867;SDS011;10096;51.112;6.776;2023-04-01T03:36:28;3.00;;;1.13;;
19867;SDS011;10096;51.112;6.776;2023-04-01T03:38:55;2.60;;;1.00;;
19867;SDS011;10096;51.112;6.776;2023-04-01T03:41:22;1.85;;;1.00;;
19867;SDS011;10096;51.112;6.776;2023-04-01T03:43:54;1.50;;;0.95;;
19867;SDS011;10096;51.112;6.776;2023-04-01T03:46:25;2.03;;;1.00;;
19867;SDS011;10096;51.112;6.776;2023-04-01T03:48:53;1.00;;;1.00;;
19867;SDS011;10096;51.112;6.776;2023-04-01T03:51:21;2.22;;;1.23;;
19867;SDS011;10096;51.112;6.776;2023-04-01T03:53:51;1.45;;;1.00;;
19867;SDS011;10096;51.112;6.776;2023-04-01T03:56:23;1.83;;;1.10;;
19867;SDS011;10096;51.112;6.776;2023-04-01T03:58:52;1.23;;;1.13;;
19867;SDS011;10096;51.112;6.776;2023-04-01T04:01:23;1.60;;;1.50;;
19867;SDS011;10096;51.112;6.776;2023-04-01T04:03:51;1.90;;;1.73;;
19867;SDS011;10096;51.112;6.776;2023-04-01T04:06:24;1.27;;;0.95;;
19867;SDS011;10096;51.112;6.776;2023-04-01T04:08:51;2.00;;;1.20;;
19867;SDS011;10096;51.112;6.776;2023-04-01T04:11:19;1.20;;;1.10;;
19867;SDS011;10096;51.112;6.776;2023-04-01T04:14:00;2.97;;;1.27;;
19867;SDS011;10096;51.112;6.776;2023-04-01T04:16:27;1.15;;;1.00;;
19867;SDS011;10096;51.112;6.776;2023-04-01T04:18:56;0.98;;;0.98;;
19867;SDS011;10096;51.112;6.776;2023-04-01T04:21:23;3.65;;;1.25;;
19867;SDS011;10096;51.112;6.776;2023-04-01T04:23:50;15.63;;;14.05;;
19867;SDS011;10096;51.112;6.776;2023-04-01T04:26:22;2.28;;;1.73;;
19867;SDS011;10096;51.112;6.776;2023-04-01T04:28:50;1.98;;;1.45;;
19867;SDS011;10096;51.112;6.776;2023-04-01T04:31:24;1.35;;;1.20;;
19867;SDS011;10096;51.112;6.776;2023-04-01T04:33:52;1.20;;;1.10;;
19867;SDS011;10096;51.112;6.776;2023-04-01T04:36:20;2.10;;;1.15;;
19867;SDS011;10096;51.112;6.776;2023-04-01T04:38:47;1.20;;;1.10;;
19867;SDS011;10096;51.112;6.776;2023-04-01T04:41:15;1.55;;;1.30;;
19867;SDS011;10096;51.112;6.776;2023-04-01T04:43:48;1.73;;;1.23;;
19867;SDS011;10096;51.112;6.776;2023-04-01T04:46:16;1.35;;;1.25;;
19867;SDS011;10096;51.112;6.776;2023-04-01T04:48:47;1.42;;;1.33;;
19867;SDS011;10096;51.112;6.776;2023-04-01T04:51:14;1.23;;;1.13;;
19867;SDS011;10096;51.112;6.776;2023-04-01T04:53:55;1.23;;;1.13;;
19867;SDS011;10096;51.112;6.776;2023-04-01T04:56:27;1.40;;;1.13;;
19867;SDS011;10096;51.112;6.776;2023-04-01T04:58:58;1.38;;;1.27;;
19867;SDS011;10096;51.112;6.776;2023-04-01T05:01:26;1.02;;;1.02;;
19867;SDS011;10096;51.112;6.776;2023-04-01T05:03:57;1.38;;;1.27;;
19867;SDS011;10096;51.112;6.776;2023-04-01T05:06:42;1.75;;;1.45;;
19867;SDS011;10096;51.112;6.776;2023-04-01T05:09:12;1.23;;;1.13;;
19867;SDS011;10096;51.112;6.776;2023-04-01T05:11:43;1.25;;;1.20;;
19867;SDS011;10096;51.112;6.776;2023-04-01T05:14:17;1.40;;;1.30;;
19867;SDS011;10096;51.112;6.776;2023-04-01T05:16:52;1.85;;;1.60;;
19867;SDS011;10096;51.112;6.776;2023-04-01T05:19:31;1.92;;;1.60;;
19867;SDS011;10096;51.112;6.776;2023-04-01T05:21:58;1.85;;;1.40;;
19867;SDS011;10096;51.112;6.776;2023-04-01T05:24:33;1.73;;;1.58;;
19867;SDS011;10096;51.112;6.776;2023-04-01T05:27:00;1.50;;;1.50;;
19867;SDS011;10096;51.112;6.776;2023-04-01T05:29:30;2.83;;;1.73;;
19867;SDS011;10096;51.112;6.776;2023-04-01T05:32:00;1.70;;;1.60;;
19867;SDS011;10096;51.112;6.776;2023-04-01T05:34:29;1.50;;;1.40;;
19867;SDS011;10096;51.112;6.776;2023-04-01T05:36:59;1.70;;;1.20;;
19867;SDS011;10096;51.112;6.776;2023-04-01T05:39:29;1.30;;;1.20;;
19867;SDS011;10096;51.112;6.776;2023-04-01T05:41:56;2.03;;;1.92;;
19867;SDS011;10096;51.112;6.776;2023-04-01T05:44:24;2.08;;;1.98;;
19867;SDS011;10096;51.112;6.776;2023-04-01T05:46:51;2.47;;;1.33;;
19867;SDS011;10096;51.112;6.776;2023-04-01T05:49:23;1.40;;;1.38;;
19867;SDS011;10096;51.112;6.776;2023-04-01T05:51:54;1.85;;;1.30;;
19867;SDS011;10096;51.112;6.776;2023-04-01T05:54:27;1.67;;;1.50;;
19867;SDS011;10096;51.112;6.776;2023-04-01T05:56:54;2.05;;;1.42;;
19867;SDS011;10096;51.112;6.776;2023-04-01T05:59:21;2.30;;;1.70;;
19867;SDS011;10096;51.112;6.776;2023-04-01T06:01:48;1.50;;;1.40;;
19867;SDS011;10096;51.112;6.776;2023-04-01T06:04:26;1.60;;;1.50;;
19867;SDS011;10096;51.112;6.776;2023-04-01T06:07:13;2.15;;;1.42;;
19867;SDS011;10096;51.112;6.776;2023-04-01T06:09:50;1.95;;;1.50;;
19867;SDS011;10096;51.112;6.776;2023-04-01T06:12:24;1.30;;;1.20;;
19867;SDS011;10096;51.112;6.776;2023-04-01T06:15:24;1.35;;;1.33;;
19867;SDS011;10096;51.112;6.776;2023-04-01T06:18:22;2.47;;;2.28;;
19867;SDS011;10096;51.112;6.776;2023-04-01T06:21:11;2.97;;;2.72;;
19867;SDS011;10096;51.112;6.776;2023-04-01T06:23:54;2.65;;;1.95;;
19867;SDS011;10096;51.112;6.776;2023-04-01T06:26:37;1.77;;;1.67;;
19867;SDS011;10096;51.112;6.776;2023-04-01T06:29:17;2.15;;;2.00;;
19867;SDS011;10096;51.112;6.776;2023-04-01T06:32:01;1.77;;;1.67;;
19867;SDS011;10096;51.112;6.776;2023-04-01T06:34:53;1.70;;;1.60;;
19867;SDS011;10096;51.112;6.776;2023-04-01T06:37:41;1.90;;;1.80;;
19867;SDS011;10096;51.112;6.776;2023-04-01T06:43:24;1.85;;;1.67;;
19867;SDS011;10096;51.112;6.776;2023-04-01T06:46:02;2.17;;;1.90;;
19867;SDS011;10096;51.112;6.776;2023-04-01T06:48:45;2.03;;;1.70;;
19867;SDS011;10096;51.112;6.776;2023-04-01T06:51:26;2.30;;;1.70;;
19867;SDS011;10096;51.112;6.776;2023-04-01T06:54:07;1.90;;;1.80;;
19867;SDS011;10096;51.112;6.776;2023-04-01T06:56:38;2.10;;;2.00;;
19867;SDS011;10096;51.112;6.776;2023-04-01T06:59:13;1.88;;;1.77;;
19867;SDS011;10096;51.112;6.776;2023-04-01T07:01:44;1.77;;;1.45;;
19867;SDS011;10096;51.112;6.776;2023-04-01T07:04:38;3.70;;;1.95;;
19867;SDS011;10096;51.112;6.776;2023-04-01T07:07:16;1.85;;;1.73;;
19867;SDS011;10096;51.112;6.776;2023-04-01T07:09:50;2.20;;;1.40;;
19867;SDS011;10096;51.112;6.776;2023-04-01T07:12:23;1.67;;;1.58;;
19867;SDS011;10096;51.112;6.776;2023-04-01T07:15:04;3.00;;;2.45;;
19867;SDS011;10096;51.112;6.776;2023-04-01T07:17:40;1.80;;;1.70;;
19867;SDS011;10096;51.112;6.776;2023-04-01T07:20:22;1.90;;;1.70;;
19867;SDS011;10096;51.112;6.776;2023-04-01T07:22:54;2.20;;;1.63;;
19867;SDS011;10096;51.112;6.776;2023-04-01T07:25:30;2.85;;;2.03;;
19867;SDS011;10096;51.112;6.776;2023-04-01T07:28:05;2.35;;;1.92;;
19867;SDS011;10096;51.112;6.776;2023-04-01T07:30:52;3.40;;;2.40;;
19867;SDS011;10096;51.112;6.776;2023-04-01T07:33:42;2.95;;;2.20;;
19867;SDS011;10096;51.112;6.776;2023-04-01T07:36:16;2.75;;;2.33;;
19867;SDS011;10096;51.112;6.776;2023-04-01T07:38:57;2.63;;;2.33;;
19867;SDS011;10096;51.112;6.776;2023-04-01T07:41:31;4.45;;;4.00;;
19867;SDS011;10096;51.112;6.776;2023-04-01T07:44:20;3.25;;;2.45;;
19867;SDS011;10096;51.112;6.776;2023-04-01T07:47:10;2.97;;;2.05;;
19867;SDS011;10096;51.112;6.776;2023-04-01T07:49:56;2.75;;;2.08;;
19867;SDS011;10096;51.112;6.776;2023-04-01T07:52:31;1.95;;;1.85;;
19867;SDS011;10096;51.112;6.776;2023-04-01T07:55:09;3.85;;;1.85;;
19867;SDS011;10096;51.112;6.776;2023-04-01T07:57:47;2.05;;;1.73;;
19867;SDS011;10096;51.112;6.776;2023-04-01T08:00:20;2.10;;;1.92;;
19867;SDS011;10096;51.112;6.776;2023-04-01T08:03:03;2.35;;;2.00;;
19867;SDS011;10096;51.112;6.776;2023-04-01T08:06:03;2.50;;;2.30;;
19867;SDS011;10096;51.112;6.776;2023-04-01T08:08:52;2.30;;;2.10;;
19867;SDS011;10096;51.112;6.776;2023-04-01T08:11:41;2.30;;;2.10;;
19867;SDS011;10096;51.112;6.776;2023-04-01T08:14:24;1.80;;;1.70;;
19867;SDS011;10096;51.112;6.776;2023-04-01T08:17:05;2.80;;;2.60;;
19867;SDS011;10096;51.112;6.776;2023-04-01T08:19:44;1.98;;;1.88;;
19867;SDS011;10096;51.112;6.776;2023-04-01T08:22:23;3.58;;;1.83;;
19867;SDS011;10096;51.112;6.776;2023-04-01T08:24:55;3.45;;;2.05;;
19867;SDS011;10096;51.112;6.776;2023-04-01T08:27:28;2.78;;;2.22;;
19867;SDS011;10096;51.112;6.776;2023-04-01T08:30:02;2.30;;;1.98;;
19867;SDS011;10096;51.112;6.776;2023-04-01T08:32:34;2.20;;;2.10;;
19867;SDS011;10096;51.112;6.776;2023-04-01T08:38:01;2.38;;;2.17;;
19867;SDS011;10096;51.112;6.776;2023-04-01T08:40:39;2.45;;;2.25;;
19867;SDS011;10096;51.112;6.776;2023-04-01T08:43:20;2.83;;;2.17;;
19867;SDS011;10096;51.112;6.776;2023-04-01T08:46:17;1.98;;;1.83;;
19867;SDS011;10096;51.112;6.776;2023-04-01T08:49:11;1.90;;;1.80;;
19867;SDS011;10096;51.112;6.776;2023-04-01T08:52:01;2.10;;;2.00;;
19867;SDS011;10096;51.112;6.776;2023-04-01T08:57:56;2.00;;;1.90;;
19867;SDS011;10096;51.112;6.776;2023-04-01T09:00:38;1.92;;;1.63;;
19867;SDS011;10096;51.112;6.776;2023-04-01T09:03:25;1.88;;;1.77;;
19867;SDS011;10096;51.112;6.776;2023-04-01T09:06:25;2.00;;;1.90;;
19867;SDS011;10096;51.112;6.776;2023-04-01T09:21:12;2.60;;;2.40;;
19867;SDS011;10096;51.112;6.776;2023-04-01T09:24:10;2.78;;;2.55;;
19867;SDS011;10096;51.112;6.776;2023-04-01T09:26:57;4.55;;;2.58;;
19867;SDS011;10096;51.112;6.776;2023-04-01T09:32:48;2.97;;;2.45;;
19867;SDS011;10096;51.112;6.776;2023-04-01T09:35:45;3.63;;;3.33;;
19867;SDS011;10096;51.112;6.776;2023-04-01T09:38:20;2.40;;;2.28;;
19867;SDS011;10096;51.112;6.776;2023-04-01T09:40:52;3.78;;;2.85;;
19867;SDS011;10096;51.112;6.776;2023-04-01T09:43:34;3.10;;;2.88;;
19867;SDS011;10096;51.112;6.776;2023-04-01T09:46:16;3.97;;;2.88;;
19867;SDS011;10096;51.112;6.776;2023-04-01T09:49:11;4.30;;;3.90;;
19867;SDS011;10096;51.112;6.776;2023-04-01T09:52:06;4.00;;;3.70;;
19867;SDS011;10096;51.112;6.776;2023-04-01T09:55:04;4.47;;;4.07;;
19867;SDS011;10096;51.112;6.776;2023-04-01T10:07:28;4.32;;;3.92;;
19867;SDS011;10096;51.112;6.776;2023-04-01T10:16:58;3.75;;;3.38;;
19867;SDS011;10096;51.112;6.776;2023-04-01T10:19:51;4.00;;;3.50;;
19867;SDS011;10096;51.112;6.776;2023-04-01T10:26:01;2.53;;;2.33;;
19867;SDS011;10096;51.112;6.776;2023-04-01T10:28:57;3.97;;;3.55;;
19867;SDS011;10096;51.112;6.776;2023-04-01T10:31:55;3.10;;;2.88;;
19867;SDS011;10096;51.112;6.776;2023-04-01T10:37:52;3.42;;;3.13;;
19867;SDS011;10096;51.112;6.776;2023-04-01T10:40:50;3.90;;;3.60;;
19867;SDS011;10096;51.112;6.776;2023-04-01T10:43:43;4.15;;;3.78;;
19867;SDS011;10096;51.112;6.776;2023-04-01T10:46:35;4.28;;;3.88;;
19867;SDS011;10096;51.112;6.776;2023-04-01T10:49:43;3.60;;;3.30;;
19867;SDS011;10096;51.112;6.776;2023-04-01T10:52:33;3.47;;;3.13;;
19867;SDS011;10096;51.112;6.776;2023-04-01T10:55:32;3.35;;;3.10;;
19867;SDS011;10096;51.112;6.776;2023-04-01T10:58:14;3.33;;;3.05;;
19867;SDS011;10096;51.112;6.776;2023-04-01T11:14:01;4.10;;;3.80;;
19867;SDS011;10096;51.112;6.776;2023-04-01T11:17:02;5.07;;;4.60;;
19867;SDS011;10096;51.112;6.776;2023-04-01T11:20:03;4.28;;;3.88;;
19867;SDS011;10096;51.112;6.776;2023-04-01T11:23:00;5.03;;;4.32;;
19867;SDS011;10096;51.112;6.776;2023-04-01T11:31:36;5.38;;;4.53;;
19867;SDS011;10096;51.112;6.776;2023-04-01T11:34:28;6.00;;;5.05;;
19867;SDS011;10096;51.112;6.776;2023-04-01T11:37:06;5.72;;;5.22;;
19867;SDS011;10096;51.112;6.776;2023-04-01T11:39:46;5.40;;;4.90;;
19867;SDS011;10096;51.112;6.776;2023-04-01T11:42:28;5.60;;;5.10;;
19867;SDS011;10096;51.112;6.776;2023-04-01T11:45:10;4.70;;;4.30;;
19867;SDS011;10096;51.112;6.776;2023-04-01T11:50:58;5.13;;;4.63;;
19867;SDS011;10096;51.112;6.776;2023-04-01T11:53:47;4.95;;;4.43;;
19867;SDS011;10096;51.112;6.776;2023-04-01T11:56:29;4.95;;;4.55;;
19867;SDS011;10096;51.112;6.776;2023-04-01T12:02:16;4.55;;;4.15;;
19867;SDS011;10096;51.112;6.776;2023-04-01T12:10:55;4.53;;;4.13;;
19867;SDS011;10096;51.112;6.776;2023-04-01T12:13:30;4.53;;;4.13;;
19867;SDS011;10096;51.112;6.776;2023-04-01T12:18:55;4.57;;;4.18;;
19867;SDS011;10096;51.112;6.776;2023-04-01T12:21:28;4.53;;;4.13;;
19867;SDS011;10096;51.112;6.776;2023-04-01T12:27:04;4.13;;;3.83;;
19867;SDS011;10096;51.112;6.776;2023-04-01T12:32:42;4.18;;;3.60;;
19867;SDS011;10096;51.112;6.776;2023-04-01T12:35:21;4.43;;;4.13;;
19867;SDS011;10096;51.112;6.776;2023-04-01T12:37:57;4.60;;;4.20;;
19867;SDS011;10096;51.112;6.776;2023-04-01T12:40:43;7.18;;;6.43;;
19867;SDS011;10096;51.112;6.776;2023-04-01T12:43:21;4.53;;;4.13;;
19867;SDS011;10096;51.112;6.776;2023-04-01T12:46:11;4.65;;;4.25;;
19867;SDS011;10096;51.112;6.776;2023-04-01T12:52:10;5.05;;;4.60;;
19867;SDS011;10096;51.112;6.776;2023-04-01T12:57:48;5.05;;;4.65;;
19867;SDS011;10096;51.112;6.776;2023-04-01T13:06:53;4.90;;;4.40;;
19867;SDS011;10096;51.112;6.776;2023-04-01T13:09:37;4.43;;;4.03;;
19867;SDS011;10096;51.112;6.776;2023-04-01T13:12:23;5.18;;;4.68;;
19867;SDS011;10096;51.112;6.776;2023-04-01T13:15:09;5.78;;;5.28;;
19867;SDS011;10096;51.112;6.776;2023-04-01T13:17:58;5.50;;;5.00;;
19867;SDS011;10096;51.112;6.776;2023-04-01T13:20:44;6.07;;;5.50;;
19867;SDS011;10096;51.112;6.776;2023-04-01T13:23:24;5.95;;;5.45;;
19867;SDS011;10096;51.112;6.776;2023-04-01T13:26:01;6.47;;;5.97;;
19867;SDS011;10096;51.112;6.776;2023-04-01T13:28:37;5.30;;;4.80;;
19867;SDS011;10096;51.112;6.776;2023-04-01T13:31:29;5.28;;;4.78;;
19867;SDS011;10096;51.112;6.776;2023-04-01T13:34:15;5.25;;;4.75;;
19867;SDS011;10096;51.112;6.776;2023-04-01T13:36:50;4.50;;;4.10;;
19867;SDS011;10096;51.112;6.776;2023-04-01T13:39:32;5.00;;;4.60;;
19867;SDS011;10096;51.112;6.776;2023-04-01T13:42:16;5.00;;;4.60;;
19867;SDS011;10096;51.112;6.776;2023-04-01T13:44:48;8.63;;;6.53;;
19867;SDS011;10096;51.112;6.776;2023-04-01T13:50:35;5.32;;;4.82;;
19867;SDS011;10096;51.112;6.776;2023-04-01T13:56:16;4.65;;;4.20;;
19867;SDS011;10096;51.112;6.776;2023-04-01T13:58:57;4.47;;;4.18;;
19867;SDS011;10096;51.112;6.776;2023-04-01T14:01:48;4.78;;;4.38;;
19867;SDS011;10096;51.112;6.776;2023-04-01T14:04:40;4.55;;;4.15;;
19867;SDS011;10096;51.112;6.776;2023-04-01T14:07:26;4.22;;;3.92;;
19867;SDS011;10096;51.112;6.776;2023-04-01T14:10:07;4.95;;;4.55;;
19867;SDS011;10096;51.112;6.776;2023-04-01T14:12:47;5.10;;;4.70;;
19867;SDS011;10096;51.112;6.776;2023-04-01T14:15:34;4.40;;;4.10;;
19867;SDS011;10096;51.112;6.776;2023-04-01T14:21:13;4.05;;;3.75;;
19867;SDS011;10096;51.112;6.776;2023-04-01T14:23:53;5.53;;;5.13;;
19867;SDS011;10096;51.112;6.776;2023-04-01T14:26:54;5.57;;;5.07;;
19867;SDS011;10096;51.112;6.776;2023-04-01T14:29:42;4.97;;;4.57;;
19867;SDS011;10096;51.112;6.776;2023-04-01T14:32:23;4.45;;;4.15;;
19867;SDS011;10096;51.112;6.776;2023-04-01T14:35:14;3.80;;;3.40;;
19867;SDS011;10096;51.112;6.776;2023-04-01T14:41:02;4.90;;;4.50;;
19867;SDS011;10096;51.112;6.776;2023-04-01T14:46:53;3.75;;;3.42;;
19867;SDS011;10096;51.112;6.776;2023-04-01T14:49:44;4.10;;;3.80;;
19867;SDS011;10096;51.112;6.776;2023-04-01T14:52:21;4.25;;;3.95;;
19867;SDS011;10096;51.112;6.776;2023-04-01T14:54:51;4.22;;;3.83;;
19867;SDS011;10096;51.112;6.776;2023-04-01T14:57:28;5.07;;;4.68;;
19867;SDS011;10096;51.112;6.776;2023-04-01T15:00:17;4.57;;;4.18;;
19867;SDS011;10096;51.112;6.776;2023-04-01T15:02:47;4.65;;;4.25;;
19867;SDS011;10096;51.112;6.776;2023-04-01T15:05:38;6.28;;;4.70;;
19867;SDS011;10096;51.112;6.776;2023-04-01T15:08:17;6.03;;;5.53;;
19867;SDS011;10096;51.112;6.776;2023-04-01T15:11:03;5.93;;;5.43;;
19867;SDS011;10096;51.112;6.776;2023-04-01T15:16:55;5.78;;;5.18;;
19867;SDS011;10096;51.112;6.776;2023-04-01T15:19:34;5.50;;;5.00;;
19867;SDS011;10096;51.112;6.776;2023-04-01T15:22:15;5.38;;;4.80;;
19867;SDS011;10096;51.112;6.776;2023-04-01T15:24:56;5.30;;;4.80;;
19867;SDS011;10096;51.112;6.776;2023-04-01T15:27:34;5.00;;;4.53;;
19867;SDS011;10096;51.112;6.776;2023-04-01T15:30:17;4.63;;;4.22;;
19867;SDS011;10096;51.112;6.776;2023-04-01T15:32:57;5.03;;;4.55;;
19867;SDS011;10096;51.112;6.776;2023-04-01T15:35:50;4.68;;;4.28;;
19867;SDS011;10096;51.112;6.776;2023-04-01T15:38:29;5.75;;;5.25;;
19867;SDS011;10096;51.112;6.776;2023-04-01T15:41:02;5.47;;;4.93;;
19867;SDS011;10096;51.112;6.776;2023-04-01T15:43:40;5.50;;;5.00;;
19867;SDS011;10096;51.112;6.776;2023-04-01T15:46:12;4.70;;;4.30;;
19867;SDS011;10096;51.112;6.776;2023-04-01T15:48:50;6.80;;;5.55;;
19867;SDS011;10096;51.112;6.776;2023-04-01T15:57:33;4.90;;;4.50;;
19867;SDS011;10096;51.112;6.776;2023-04-01T16:00:22;4.70;;;4.28;;
19867;SDS011;10096;51.112;6.776;2023-04-01T16:03:01;5.07;;;4.57;;
19867;SDS011;10096;51.112;6.776;2023-04-01T16:05:55;5.18;;;4.70;;
19867;SDS011;10096;51.112;6.776;2023-04-01T16:11:37;8.15;;;7.22;;
19867;SDS011;10096;51.112;6.776;2023-04-01T16:14:18;5.57;;;5.07;;
19867;SDS011;10096;51.112;6.776;2023-04-01T16:17:17;6.25;;;5.65;;
19867;SDS011;10096;51.112;6.776;2023-04-01T16:19:58;4.93;;;4.45;;
19867;SDS011;10096;51.112;6.776;2023-04-01T16:22:29;4.68;;;4.28;;
19867;SDS011;10096;51.112;6.776;2023-04-01T16:25:05;5.10;;;4.60;;
19867;SDS011;10096;51.112;6.776;2023-04-01T16:27:54;6.50;;;5.80;;
19867;SDS011;10096;51.112;6.776;2023-04-01T16:30:34;5.55;;;5.07;;
19867;SDS011;10096;51.112;6.776;2023-04-01T16:33:04;4.47;;;4.07;;
19867;SDS011;10096;51.112;6.776;2023-04-01T16:35:43;5.95;;;5.35;;
19867;SDS011;10096;51.112;6.776;2023-04-01T16:38:18;5.95;;;5.03;;
19867;SDS011;10096;51.112;6.776;2023-04-01T16:41:07;5.75;;;5.25;;
19867;SDS011;10096;51.112;6.776;2023-04-01T16:43:44;6.82;;;6.20;;
19867;SDS011;10096;51.112;6.776;2023-04-01T16:46:32;5.40;;;4.90;;
19867;SDS011;10096;51.112;6.776;2023-04-01T16:49:13;5.22;;;4.72;;
19867;SDS011;10096;51.112;6.776;2023-04-01T16:52:00;5.63;;;5.03;;
19867;SDS011;10096;51.112;6.776;2023-04-01T16:54:55;4.85;;;4.32;;
19867;SDS011;10096;51.112;6.776;2023-04-01T16:57:35;5.55;;;4.60;;
19867;SDS011;10096;51.112;6.776;2023-04-01T17:00:14;5.47;;;5.07;;
19867;SDS011;10096;51.112;6.776;2023-04-01T17:02:48;4.55;;;4.25;;
19867;SDS011;10096;51.112;6.776;2023-04-01T17:05:32;4.55;;;4.18;;
19867;SDS011;10096;51.112;6.776;2023-04-01T17:08:09;5.85;;;5.30;;
19867;SDS011;10096;51.112;6.776;2023-04-01T17:10:52;4.13;;;3.83;;
19867;SDS011;10096;51.112;6.776;2023-04-01T17:13:33;4.68;;;4.28;;
19867;SDS011;10096;51.112;6.776;2023-04-01T17:19:21;4.60;;;4.20;;
19867;SDS011;10096;51.112;6.776;2023-04-01T17:22:04;5.85;;;5.13;;
19867;SDS011;10096;51.112;6.776;2023-04-01T17:27:47;4.32;;;3.92;;
19867;SDS011;10096;51.112;6.776;2023-04-01T17:30:30;5.53;;;5.13;;
19867;SDS011;10096;51.112;6.776;2023-04-01T17:33:10;4.47;;;4.07;;
19867;SDS011;10096;51.112;6.776;2023-04-01T17:35:55;5.28;;;4.88;;
19867;SDS011;10096;51.112;6.776;2023-04-01T17:38:29;3.83;;;3.53;;
19867;SDS011;10096;51.112;6.776;2023-04-01T17:41:11;3.95;;;3.65;;
19867;SDS011;10096;51.112;6.776;2023-04-01T17:43:49;4.10;;;3.65;;
19867;SDS011;10096;51.112;6.776;2023-04-01T17:46:23;4.82;;;4.18;;
19867;SDS011;10096;51.112;6.776;2023-04-01T17:49:01;5.15;;;4.60;;
19867;SDS011;10096;51.112;6.776;2023-04-01T17:51:41;4.70;;;4.30;;
19867;SDS011;10096;51.112;6.776;2023-04-01T17:54:19;5.80;;;5.20;;
19867;SDS011;10096;51.112;6.776;2023-04-01T18:00:13;4.18;;;3.78;;
19867;SDS011;10096;51.112;6.776;2023-04-01T18:02:49;5.55;;;4.22;;
19867;SDS011;10096;51.112;6.776;2023-04-01T18:05:30;5.20;;;4.80;;
19867;SDS011;10096;51.112;6.776;2023-04-01T18:08:18;4.60;;;4.20;;
19867;SDS011;10096;51.112;6.776;2023-04-01T18:11:08;5.63;;;5.18;;
19867;SDS011;10096;51.112;6.776;2023-04-01T18:13:51;5.40;;;5.00;;
19867;SDS011;10096;51.112;6.776;2023-04-01T18:16:30;5.53;;;5.03;;
19867;SDS011;10096;51.112;6.776;2023-04-01T18:19:14;4.75;;;4.28;;
19867;SDS011;10096;51.112;6.776;2023-04-01T18:21:52;5.13;;;4.72;;
19867;SDS011;10096;51.112;6.776;2023-04-01T18:24:24;5.70;;;5.15;;